createdAt,value
2023-04-05T00:01:08.173Z,44.82
2023-04-05T00:03:35.940Z,43.19
2023-04-05T00:06:05.869Z,43.93
2023-04-05T00:08:33.586Z,44.33
2023-04-05T00:11:02.646Z,44.22
2023-04-05T00:13:30.858Z,44.09
2023-04-05T00:16:01.041Z,44.35
2023-04-05T00:18:34.624Z,44.54
2023-04-05T00:21:02.594Z,44.80
2023-04-05T00:23:40.196Z,44.84
2023-04-05T00:26:09.536Z,44.18
2023-04-05T00:28:37.203Z,44.95
2023-04-05T00:31:05.914Z,43.20
2023-04-05T00:33:33.662Z,43.79
2023-04-05T00:36:11.230Z,44.73
2023-04-05T00:38:39.168Z,44.38
2023-04-05T00:41:07.180Z,43.70
2023-04-05T00:43:37.412Z,43.40
2023-04-05T00:46:06.170Z,43.32
2023-04-05T00:48:34.509Z,43.01
2023-04-05T00:51:03.243Z,43.18
2023-04-05T00:53:32.454Z,43.65
2023-04-05T00:56:01.333Z,42.78
2023-04-05T00:58:29.542Z,42.79
2023-04-05T01:01:06.608Z,43.88
2023-04-05T01:03:37.432Z,43.12
2023-04-05T01:06:21.884Z,43.43
2023-04-05T01:08:57.287Z,43.40
2023-04-05T01:11:27.308Z,43.95
2023-04-05T01:14:00.220Z,44.09
2023-04-05T01:16:30.011Z,43.65
2023-04-05T01:18:57.645Z,42.78
2023-04-05T01:21:46.544Z,44.17
2023-04-05T01:24:27.549Z,44.47
2023-04-05T01:27:04.111Z,44.50
2023-04-05T01:30:04.560Z,44.44
2023-04-05T01:35:41.857Z,44.16
2023-04-05T01:38:13.552Z,44.32
2023-04-05T01:40:42.930Z,44.29
2023-04-05T01:43:15.138Z,44.87
2023-04-05T01:45:45.718Z,44.69
2023-04-05T01:48:14.033Z,44.94
2023-04-05T01:50:41.909Z,45.17
2023-04-05T01:53:10.519Z,44.87
2023-04-05T01:55:38.269Z,44.48
2023-04-05T01:58:06.168Z,44.85
2023-04-05T02:00:34.415Z,44.73
2023-04-05T02:03:03.586Z,45.43
2023-04-05T02:05:31.396Z,45.58
2023-04-05T02:07:59.542Z,44.96
2023-04-05T02:10:27.272Z,45.87
2023-04-05T02:12:54.932Z,45.98
2023-04-05T02:15:23.133Z,45.65
2023-04-05T02:17:53.999Z,45.54
2023-04-05T02:20:23.829Z,45.66
2023-04-05T02:22:51.786Z,45.02
2023-04-05T02:25:19.604Z,45.78
2023-04-05T02:27:47.938Z,45.44
2023-04-05T02:30:16.176Z,45.55
2023-04-05T02:32:44.702Z,45.29
2023-04-05T02:35:13.723Z,45.71
2023-04-05T02:37:42.801Z,46.05
2023-04-05T02:40:15.830Z,45.45
2023-04-05T02:42:43.566Z,45.50
2023-04-05T02:45:11.852Z,46.08
2023-04-05T02:47:40.176Z,45.30
2023-04-05T02:50:08.944Z,45.73
2023-04-05T02:52:37.579Z,45.69
2023-04-05T02:55:08.348Z,45.48
2023-04-05T02:57:36.027Z,46.42
2023-04-05T03:00:05.006Z,45.83
2023-04-05T03:02:33.345Z,45.75
2023-04-05T03:05:02.371Z,45.61
2023-04-05T03:07:30.479Z,46.41
2023-04-05T03:09:58.624Z,45.77
2023-04-05T03:12:27.708Z,45.47
2023-04-05T03:14:55.628Z,46.07
2023-04-05T03:17:23.930Z,46.02
2023-04-05T03:19:51.626Z,46.69
2023-04-05T03:22:19.301Z,46.10
2023-04-05T03:24:47.959Z,46.21
2023-04-05T03:27:15.655Z,46.65
2023-04-05T03:29:44.727Z,47.14
2023-04-05T03:32:14.441Z,46.56
2023-04-05T03:34:41.934Z,46.13
2023-04-05T03:37:09.579Z,46.93
2023-04-05T03:39:38.207Z,47.17
2023-04-05T03:42:05.999Z,47.24
2023-04-05T03:44:33.696Z,46.83
2023-04-05T03:47:03.247Z,47.76
2023-04-05T03:49:31.090Z,47.05
2023-04-05T03:51:58.747Z,47.81
2023-04-05T03:54:26.982Z,47.66
2023-04-05T03:56:54.743Z,47.83
2023-04-05T03:59:22.503Z,47.19
2023-04-05T04:01:50.800Z,47.46
2023-04-05T04:04:19.945Z,47.36
2023-04-05T04:06:47.690Z,47.74
2023-04-05T04:09:16.261Z,47.39
2023-04-05T04:11:43.914Z,48.03
2023-04-05T04:14:11.596Z,47.12
2023-04-05T04:16:39.838Z,47.27
2023-04-05T04:19:07.536Z,47.76
2023-04-05T04:21:40.115Z,47.91
2023-04-05T04:24:08.016Z,47.50
2023-04-05T04:26:37.468Z,47.60
2023-04-05T04:29:07.213Z,47.74
2023-04-05T04:31:34.728Z,47.05
2023-04-05T04:34:05.524Z,47.05
2023-04-05T04:36:39.826Z,47.37
2023-04-05T04:39:10.304Z,47.86
2023-04-05T04:41:38.188Z,47.82
2023-04-05T04:44:06.667Z,48.52
2023-04-05T04:46:42.953Z,47.93
2023-04-05T04:49:11.273Z,47.62
2023-04-05T04:51:39.183Z,48.38
2023-04-05T04:54:08.384Z,47.52
2023-04-05T04:56:36.824Z,48.15
2023-04-05T04:59:04.494Z,48.71
2023-04-05T05:01:33.999Z,48.86
2023-04-05T05:04:02.416Z,48.38
2023-04-05T05:06:31.302Z,48.31
2023-04-05T05:08:58.962Z,48.02
2023-04-05T05:11:29.452Z,48.38
2023-04-05T05:13:57.106Z,47.74
2023-04-05T05:16:24.884Z,48.13
2023-04-05T05:18:53.209Z,48.48
2023-04-05T05:21:21.039Z,48.21
2023-04-05T05:23:49.156Z,48.25
2023-04-05T05:26:17.320Z,48.97
2023-04-05T05:28:48.818Z,48.70
2023-04-05T05:31:18.221Z,48.75
2023-04-05T05:33:49.477Z,48.40
2023-04-05T05:36:17.164Z,48.55
2023-04-05T05:38:45.406Z,48.26
2023-04-05T05:41:13.281Z,48.25
2023-04-05T05:43:40.944Z,49.27
2023-04-05T05:46:10.505Z,48.48
2023-04-05T05:48:38.203Z,48.40
2023-04-05T05:51:09.764Z,49.37
2023-04-05T05:53:38.023Z,49.67
2023-04-05T05:56:06.499Z,49.13
2023-04-05T05:58:34.325Z,49.18
2023-04-05T06:01:04.300Z,49.15
2023-04-05T06:03:33.759Z,49.06
2023-04-05T06:06:03.125Z,48.54
2023-04-05T06:08:31.402Z,49.27
2023-04-05T06:10:59.408Z,49.11
2023-04-05T06:13:27.171Z,48.68
2023-04-05T06:15:55.199Z,49.05
2023-04-05T06:18:22.899Z,48.88
2023-04-05T06:20:51.930Z,48.74
2023-04-05T06:23:20.188Z,49.42
2023-04-05T06:25:47.867Z,48.48
2023-04-05T06:28:15.615Z,48.88
2023-04-05T06:30:43.766Z,48.41
2023-04-05T06:33:11.516Z,48.64
2023-04-05T06:35:39.287Z,49.35
2023-04-05T06:38:08.729Z,48.34
2023-04-05T06:40:36.396Z,49.21
2023-04-05T06:43:04.128Z,48.90
2023-04-05T06:45:32.264Z,49.20
2023-04-05T06:47:59.997Z,49.65
2023-04-05T06:50:27.735Z,48.69
2023-04-05T06:52:56.059Z,48.59
2023-04-05T06:55:25.116Z,48.67
2023-04-05T06:57:52.841Z,50.06
2023-04-05T07:00:21.583Z,50.27
2023-04-05T07:02:49.292Z,49.32
2023-04-05T07:05:17.062Z,49.81
2023-04-05T07:07:45.771Z,49.50
2023-04-05T07:10:13.462Z,49.17
2023-04-05T07:12:42.543Z,49.59
2023-04-05T07:15:11.548Z,49.96
2023-04-05T07:17:39.262Z,49.45
2023-04-05T07:20:08.364Z,49.19
2023-04-05T07:22:36.587Z,49.39
2023-04-05T07:25:05.558Z,49.00
2023-04-05T07:27:33.228Z,49.18
2023-04-05T07:30:02.833Z,49.18
2023-04-05T07:32:30.505Z,48.84
2023-04-05T07:34:58.224Z,47.76
2023-04-05T07:37:27.441Z,48.73
2023-04-05T07:39:55.132Z,48.95
2023-04-05T07:42:22.866Z,48.59
2023-04-05T07:44:50.718Z,48.29
2023-04-05T07:47:19.922Z,46.51
2023-04-05T07:49:47.580Z,45.68
2023-04-05T07:52:15.469Z,44.66
2023-04-05T07:54:43.920Z,44.19
2023-04-05T07:57:11.715Z,43.04
2023-04-05T07:59:39.857Z,42.39
2023-04-05T08:02:14.620Z,42.18
2023-04-05T08:04:44.409Z,41.47
2023-04-05T08:07:12.076Z,40.46
2023-04-05T08:09:39.753Z,40.55
2023-04-05T08:12:07.909Z,40.39
2023-04-05T08:14:35.602Z,39.01
2023-04-05T08:17:03.256Z,38.69
2023-04-05T08:19:31.137Z,38.30
2023-04-05T08:22:00.157Z,36.69
2023-04-05T08:24:27.885Z,36.41
2023-04-05T08:26:56.320Z,36.07
2023-04-05T08:29:24.158Z,36.32
2023-04-05T08:31:51.850Z,36.86
2023-04-05T08:34:19.663Z,37.19
2023-04-05T08:36:48.846Z,36.77
2023-04-05T08:39:18.671Z,36.18
2023-04-05T08:41:51.565Z,38.01
2023-04-05T08:44:23.617Z,36.29
2023-04-05T08:46:52.209Z,35.88
2023-04-05T08:49:19.896Z,36.84
2023-04-05T08:51:47.584Z,35.00
2023-04-05T08:54:15.837Z,35.08
2023-04-05T08:56:48.865Z,35.24
2023-04-05T08:59:19.671Z,35.64
2023-04-05T09:01:49.179Z,34.66
2023-04-05T09:04:19.842Z,34.49
2023-04-05T09:06:50.670Z,35.77
2023-04-05T09:09:21.695Z,35.49
2023-04-05T09:11:51.408Z,34.96
2023-04-05T09:14:20.142Z,37.09
2023-04-05T09:16:48.280Z,35.34
2023-04-05T09:19:16.180Z,33.87
2023-04-05T09:22:00.983Z,34.90
2023-04-05T09:24:36.687Z,34.12
2023-04-05T09:27:10.814Z,34.22
2023-04-05T09:29:39.802Z,33.33
2023-04-05T09:32:09.402Z,32.46
2023-04-05T09:34:38.144Z,33.29
2023-04-05T09:37:14.492Z,32.71
2023-04-05T09:39:42.851Z,31.75
2023-04-05T09:42:15.259Z,32.99
2023-04-05T09:44:57.365Z,31.87
2023-04-05T09:47:30.821Z,32.22
2023-04-05T09:49:59.038Z,33.79
2023-04-05T09:52:28.909Z,33.29
2023-04-05T09:54:59.300Z,33.70
2023-04-05T09:57:29.480Z,32.89
2023-04-05T09:59:57.314Z,33.00
2023-04-05T10:02:26.619Z,33.15
2023-04-05T10:04:54.326Z,32.05
2023-04-05T10:07:22.056Z,32.37
2023-04-05T10:09:50.197Z,31.89
2023-04-05T10:12:27.434Z,32.14
2023-04-05T10:14:57.176Z,33.58
2023-04-05T10:17:28.463Z,33.08
2023-04-05T10:20:10.914Z,33.02
2023-04-05T10:22:49.979Z,32.70
2023-04-05T10:25:25.607Z,31.55
2023-04-05T10:27:56.654Z,32.24
2023-04-05T10:30:35.590Z,32.13
2023-04-05T10:33:12.786Z,32.90
2023-04-05T10:35:51.345Z,33.25
2023-04-05T10:38:24.291Z,32.92
2023-04-05T10:40:55.861Z,33.37
2023-04-05T10:43:26.669Z,32.41
2023-04-05T10:45:56.763Z,33.07
2023-04-05T10:48:35.666Z,32.63
2023-04-05T10:51:04.457Z,30.95
2023-04-05T10:53:33.626Z,31.38
2023-04-05T10:56:02.866Z,31.90
2023-04-05T10:58:31.481Z,32.37
2023-04-05T11:01:01.636Z,32.57
2023-04-05T11:03:49.422Z,32.82
2023-04-05T11:06:22.061Z,31.29
2023-04-05T11:08:51.787Z,33.05
2023-04-05T11:11:20.265Z,32.90
2023-04-05T11:13:49.888Z,33.50
2023-04-05T11:16:19.115Z,33.04
2023-04-05T11:18:47.958Z,32.04
2023-04-05T11:21:23.812Z,31.84
2023-04-05T11:24:06.657Z,31.36
2023-04-05T11:29:50.655Z,31.10
2023-04-05T11:32:20.003Z,30.72
2023-04-05T11:35:00.180Z,30.84
2023-04-05T11:37:56.775Z,31.60
2023-04-05T11:40:29.665Z,29.07
2023-04-05T11:43:02.965Z,30.99
2023-04-05T11:45:32.507Z,29.22
2023-04-05T11:48:05.986Z,30.69
2023-04-05T11:50:34.229Z,30.59
2023-04-05T11:53:12.907Z,30.59
2023-04-05T11:55:42.383Z,30.56
2023-04-05T11:58:14.168Z,30.49
2023-04-05T12:00:42.318Z,30.14
2023-04-05T12:03:14.500Z,30.60
2023-04-05T12:05:49.801Z,30.20
2023-04-05T12:08:18.177Z,30.15
2023-04-05T12:10:45.977Z,30.34
2023-04-05T12:13:13.639Z,29.61
2023-04-05T12:15:42.083Z,29.98
2023-04-05T12:18:17.486Z,29.95
2023-04-05T12:20:45.822Z,29.13
2023-04-05T12:23:13.777Z,29.22
2023-04-05T12:25:42.793Z,28.15
2023-04-05T12:28:11.671Z,28.73
2023-04-05T12:30:49.620Z,28.26
2023-04-05T12:33:28.365Z,29.27
2023-04-05T12:35:56.135Z,29.19
2023-04-05T12:38:27.075Z,29.47
2023-04-05T12:40:55.353Z,28.92
2023-04-05T12:43:24.157Z,29.74
2023-04-05T12:45:56.653Z,29.91
2023-04-05T12:48:26.038Z,30.17
2023-04-05T12:50:55.032Z,29.27
2023-04-05T12:53:25.609Z,29.06
2023-04-05T12:55:54.986Z,29.28
2023-04-05T12:58:24.424Z,29.64
2023-04-05T13:00:52.365Z,29.08
2023-04-05T13:03:21.694Z,29.76
2023-04-05T13:05:50.923Z,29.64
2023-04-05T13:08:19.601Z,28.82
2023-04-05T13:10:48.028Z,28.94
2023-04-05T13:13:16.333Z,29.26
2023-04-05T13:15:44.910Z,29.14
2023-04-05T13:18:14.764Z,29.40
2023-04-05T13:20:43.284Z,30.18
2023-04-05T13:23:12.969Z,29.36
2023-04-05T13:25:41.494Z,30.15
2023-04-05T13:28:10.426Z,29.72
2023-04-05T13:30:38.682Z,29.00
2023-04-05T13:33:06.488Z,29.96
2023-04-05T13:35:34.350Z,29.33
2023-04-05T13:38:04.628Z,29.31
2023-04-05T13:40:33.954Z,28.75
2023-04-05T13:43:01.635Z,29.65
2023-04-05T13:45:29.745Z,30.04
2023-04-05T13:47:57.437Z,29.46
2023-04-05T13:50:25.661Z,29.50
2023-04-05T13:52:53.649Z,29.10
2023-04-05T13:55:21.370Z,29.32
2023-04-05T13:57:50.422Z,28.25
2023-04-05T14:00:18.855Z,28.76
2023-04-05T14:02:46.993Z,28.41
2023-04-05T14:05:15.503Z,28.47
2023-04-05T14:07:43.574Z,28.37
2023-04-05T14:10:12.448Z,28.76
2023-04-05T14:12:40.547Z,28.35
2023-04-05T14:15:10.491Z,28.27
2023-04-05T14:17:38.348Z,28.35
2023-04-05T14:20:08.105Z,28.95
2023-04-05T14:22:36.458Z,29.53
2023-04-05T14:25:04.803Z,28.99
2023-04-05T14:27:32.592Z,29.10
2023-04-05T14:30:02.658Z,29.27
2023-04-05T14:32:33.704Z,29.40
2023-04-05T14:35:01.800Z,28.81
2023-04-05T14:37:29.951Z,29.15
2023-04-05T14:39:57.749Z,29.10
2023-04-05T14:42:34.137Z,29.60
2023-04-05T14:45:10.938Z,29.21
2023-04-05T14:47:39.932Z,29.51
2023-04-05T14:50:08.712Z,28.39
2023-04-05T14:52:37.732Z,28.31
2023-04-05T14:55:06.186Z,28.99
2023-04-05T14:57:33.976Z,28.60
2023-04-05T15:00:02.301Z,28.88
2023-04-05T15:02:30.304Z,28.13
2023-04-05T15:05:00.471Z,28.50
2023-04-05T15:07:29.324Z,28.66
2023-04-05T15:09:57.153Z,28.87
2023-04-05T15:12:25.145Z,28.95
2023-04-05T15:14:54.852Z,28.31
2023-04-05T15:17:22.747Z,28.23
2023-04-05T15:19:50.598Z,27.79
2023-04-05T15:22:21.291Z,28.21
2023-04-05T15:24:49.102Z,28.40
2023-04-05T15:27:16.886Z,28.74
2023-04-05T15:29:45.195Z,28.57
2023-04-05T15:32:13.000Z,28.85
2023-04-05T15:34:41.489Z,28.30
2023-04-05T15:37:10.782Z,28.33
2023-04-05T15:39:39.970Z,28.83
2023-04-05T15:42:07.819Z,29.06
2023-04-05T15:44:36.308Z,28.66
2023-04-05T15:47:04.180Z,28.24
2023-04-05T15:49:32.110Z,28.49
2023-04-05T15:52:00.937Z,28.54
2023-04-05T15:54:28.780Z,29.14
2023-04-05T15:56:58.112Z,28.58
2023-04-05T15:59:26.287Z,28.75
2023-04-05T16:01:54.186Z,28.24
2023-04-05T16:04:23.156Z,28.44
2023-04-05T16:06:51.799Z,28.63
2023-04-05T16:09:19.577Z,28.45
2023-04-05T16:11:47.731Z,28.54
2023-04-05T16:14:17.657Z,28.61
2023-04-05T16:16:53.820Z,29.15
2023-04-05T16:19:23.607Z,28.42
2023-04-05T16:21:52.820Z,29.14
2023-04-05T16:24:21.210Z,28.97
2023-04-05T16:26:49.721Z,28.83
2023-04-05T16:29:18.974Z,29.25
2023-04-05T16:31:47.913Z,28.91
2023-04-05T16:34:16.099Z,28.77
2023-04-05T16:36:43.987Z,28.76
2023-04-05T16:39:11.790Z,28.68
2023-04-05T16:41:40.067Z,28.31
2023-04-05T16:44:07.930Z,28.72
2023-04-05T16:46:37.211Z,28.75
2023-04-05T16:49:05.818Z,28.50
2023-04-05T16:51:35.271Z,28.86
2023-04-05T16:54:03.424Z,28.71
2023-04-05T16:56:31.765Z,29.09
2023-04-05T16:58:59.800Z,29.16
2023-04-05T17:01:28.758Z,29.03
2023-04-05T17:04:00.376Z,28.71
2023-04-05T17:06:28.969Z,29.13
2023-04-05T17:08:56.911Z,28.71
2023-04-05T17:11:25.416Z,28.81
2023-04-05T17:13:53.210Z,29.00
2023-04-05T17:16:21.775Z,29.07
2023-04-05T17:18:50.296Z,29.20
2023-04-05T17:21:20.055Z,29.37
2023-04-05T17:23:47.913Z,29.29
2023-04-05T17:26:16.565Z,29.25
2023-04-05T17:28:44.505Z,29.37
2023-04-05T17:31:12.522Z,29.00
2023-04-05T17:33:41.256Z,28.91
2023-04-05T17:36:09.374Z,29.37
2023-04-05T17:38:38.755Z,29.70
2023-04-05T17:41:07.208Z,29.44
2023-04-05T17:43:35.690Z,30.60
2023-04-05T17:46:04.157Z,30.89
2023-04-05T17:48:33.318Z,29.67
2023-04-05T17:51:06.113Z,31.10
2023-04-05T17:53:34.408Z,31.20
2023-04-05T17:56:04.103Z,31.35
2023-04-05T17:58:32.432Z,30.59
2023-04-05T18:01:00.864Z,31.49
2023-04-05T18:03:29.138Z,31.05
2023-04-05T18:05:57.357Z,31.36
2023-04-05T18:08:26.975Z,31.71
2023-04-05T18:10:58.356Z,31.22
2023-04-05T18:13:29.055Z,32.08
2023-04-05T18:15:57.635Z,32.55
2023-04-05T18:18:26.293Z,33.06
2023-04-05T18:20:55.931Z,33.05
2023-04-05T18:23:24.917Z,32.05
2023-04-05T18:25:53.810Z,33.21
2023-04-05T18:28:23.644Z,33.74
2023-04-05T18:30:53.183Z,33.16
2023-04-05T18:33:22.467Z,33.62
2023-04-05T18:35:51.919Z,33.63
2023-04-05T18:38:19.834Z,33.52
2023-04-05T18:40:47.674Z,34.21
2023-04-05T18:43:15.983Z,33.97
2023-04-05T18:45:43.851Z,33.63
2023-04-05T18:48:13.438Z,33.62
2023-04-05T18:50:41.754Z,33.53
2023-04-05T18:53:09.772Z,33.05
2023-04-05T18:55:37.898Z,33.89
2023-04-05T18:58:06.515Z,33.94
2023-04-05T19:00:34.994Z,34.28
2023-04-05T19:03:02.896Z,34.19
2023-04-05T19:05:32.797Z,33.74
2023-04-05T19:08:00.633Z,34.30
2023-04-05T19:10:28.503Z,33.93
2023-04-05T19:12:57.075Z,34.45
2023-04-05T19:15:24.881Z,34.41
2023-04-05T19:17:52.732Z,35.07
2023-04-05T19:20:20.960Z,34.59
2023-04-05T19:22:50.294Z,34.82
2023-04-05T19:25:18.312Z,34.89
2023-04-05T19:27:46.880Z,35.36
2023-04-05T19:30:14.870Z,35.05
2023-04-05T19:32:42.743Z,34.80
2023-04-05T19:35:11.756Z,35.71
2023-04-05T19:37:39.654Z,35.53
2023-04-05T19:40:10.414Z,35.56
2023-04-05T19:42:38.794Z,35.55
2023-04-05T19:45:09.297Z,35.37
2023-04-05T19:47:44.950Z,35.96
2023-04-05T19:50:40.163Z,35.50
2023-04-05T19:53:09.221Z,35.78
2023-04-05T19:55:39.904Z,36.05
2023-04-05T19:58:09.194Z,36.17
2023-04-05T20:00:38.829Z,36.27
2023-04-05T20:03:29.224Z,36.17
2023-04-05T20:06:05.312Z,35.79
2023-04-05T20:08:36.427Z,36.22
2023-04-05T20:11:11.740Z,35.95
2023-04-05T20:13:43.418Z,35.92
2023-04-05T20:16:15.567Z,35.76
2023-04-05T20:18:47.821Z,36.09
2023-04-05T20:21:16.877Z,36.06
2023-04-05T20:23:45.838Z,36.08
2023-04-05T20:26:16.727Z,36.09
2023-04-05T20:28:53.276Z,36.43
2023-04-05T20:31:23.614Z,36.33
2023-04-05T20:33:54.523Z,36.39
2023-04-05T20:36:24.601Z,36.23
2023-04-05T20:38:52.801Z,36.44
2023-04-05T20:41:21.961Z,36.93
2023-04-05T20:43:49.926Z,36.75
2023-04-05T20:46:17.772Z,36.50
2023-04-05T20:48:46.777Z,36.57
2023-04-05T20:51:16.419Z,36.58
2023-04-05T20:54:10.995Z,37.07
2023-04-05T20:56:41.146Z,36.79
2023-04-05T20:59:09.249Z,36.85
2023-04-05T21:01:37.865Z,37.25
2023-04-05T21:04:06.708Z,37.51
2023-04-05T21:06:36.559Z,37.21
2023-04-05T21:09:04.772Z,37.28
2023-04-05T21:11:32.785Z,37.67
2023-04-05T21:14:01.919Z,37.76
2023-04-05T21:16:29.718Z,37.91
2023-04-05T21:18:57.732Z,38.08
2023-04-05T21:21:26.145Z,38.28
2023-04-05T21:23:53.967Z,38.42
2023-04-05T21:26:22.885Z,38.86
2023-04-05T21:28:50.688Z,39.26
2023-04-05T21:31:19.864Z,39.17
2023-04-05T21:33:48.201Z,39.55
2023-04-05T21:36:15.984Z,39.95
2023-04-05T21:38:43.769Z,39.80
2023-04-05T21:41:12.194Z,40.01
2023-04-05T21:43:40.022Z,39.90
2023-04-05T21:46:07.883Z,39.63
2023-04-05T21:48:37.786Z,39.80
2023-04-05T21:51:05.601Z,39.74
2023-04-05T21:53:33.369Z,40.20
2023-04-05T21:56:01.693Z,40.13
2023-04-05T21:58:29.471Z,40.47
2023-04-05T22:00:59.539Z,40.03
2023-04-05T22:03:28.102Z,40.34
2023-04-05T22:05:57.311Z,40.55
2023-04-05T22:08:26.662Z,40.50
2023-04-05T22:10:55.109Z,40.27
2023-04-05T22:13:22.912Z,40.51
2023-04-05T22:15:50.723Z,40.32
2023-04-05T22:18:18.952Z,40.02
2023-04-05T22:20:46.732Z,40.25
2023-04-05T22:23:15.986Z,39.96
2023-04-05T22:25:44.425Z,39.98
2023-04-05T22:28:12.216Z,39.97
2023-04-05T22:30:44.148Z,40.40
2023-04-05T22:33:14.232Z,40.50
2023-04-05T22:35:42.763Z,40.46
2023-04-05T22:38:10.793Z,40.40
2023-04-05T22:40:40.509Z,40.71
2023-04-05T22:43:08.095Z,39.69
2023-04-05T22:45:36.003Z,40.58
2023-04-05T22:48:04.392Z,40.70
2023-04-05T22:50:32.485Z,40.55
2023-04-05T22:53:00.289Z,40.51
2023-04-05T22:55:28.591Z,41.10
2023-04-05T22:57:57.757Z,40.82
2023-04-05T23:00:25.558Z,40.33
2023-04-05T23:02:54.659Z,41.04
2023-04-05T23:05:22.538Z,41.09
2023-04-05T23:07:50.416Z,41.07
2023-04-05T23:10:19.162Z,41.62
2023-04-05T23:12:47.688Z,41.69
2023-04-05T23:15:16.936Z,41.94
2023-04-05T23:17:45.563Z,42.21
2023-04-05T23:20:13.600Z,42.48
2023-04-05T23:22:41.463Z,42.80
2023-04-05T23:25:10.995Z,42.58
2023-04-05T23:27:38.804Z,42.30
2023-04-05T23:30:07.974Z,41.71
2023-04-05T23:32:37.573Z,42.21
2023-04-05T23:35:05.923Z,42.19
2023-04-05T23:37:33.852Z,42.09
2023-04-05T23:40:02.249Z,41.88
2023-04-05T23:42:30.055Z,42.00
2023-04-05T23:44:57.893Z,41.54
2023-04-05T23:47:26.194Z,41.41
2023-04-05T23:49:55.777Z,41.84
2023-04-05T23:52:23.576Z,41.77
2023-04-05T23:54:51.821Z,41.61
2023-04-05T23:57:19.593Z,41.53
2023-04-05T23:59:47.405Z,41.37
